Tiempo atmosférico en la estación meteorológica de Fuente El Sol, Valladolid (755 m.)



Fecha
DESCASC
Temp. máxima en grados centígrados (hora)
DESCASC
Temp. mínima en grados centígrados (hora)
DESCASC
Temp. media en grados centígrados
DESCASC
Racha de viento máxima en m/sg (hora)
DESCASC
Velocidad máxima media en intervalos de 10 minutos(hora)
DESCASC
Precipitaciones diarias en mm
DESCASC
Precipitaciones de 00:00 a 06:00 en mm
DESCASC
Precipitaciones de 06:00 a 12:00 en mm
DESCASC
Precipitaciones de 12:00 a 18:00 en mm
DESCASC
Precipitaciones de 18:00 a 24:00 en mm
DESCASC
17-09-2020 27.5 (16:20) 16.4 (23:59) 21.9 13.89 (17:00) 10.56 (18:40) 2.4 0 0.2 0 2.2
15-09-2020 29 (16:50) 12.6 (08:00) 20.8 10.28 (00:40) 5.83 (00:40) 1.8 1.6 0.2 0 0
14-09-2020 31.5 (16:50) 16.6 (23:40) 24.1 17.22 (19:00) 9.72 (22:50) 0.8 0 0 0 0.8
13-09-2020 34.6 (15:10) 11.7 (00:00) 23.1 10.28 (16:10) 6.67 (16:10) 0 0 0 0 0
12-09-2020 34.5 (17:20) 9.1 (07:40) 21.8 8.33 (13:10) 5.56 (13:00) 0 0 0 0 0
11-09-2020 31.7 (17:40) 7.9 (00:00) 19.8 6.11 (17:50) 3.61 (18:40) 0 0 0 0 0
10-09-2020 30.3 (16:50) 8 (00:00) 19.1 7.22 (15:40) 3.89 (15:40) 0 0 0 0 0
09-09-2020 30.1 (18:10) 7.9 (07:30) 19 6.94 (15:40) 3.61 (17:20) 0 0 0 0 0
08-09-2020 27.9 (17:20) 5.2 (00:00) 16.5 6.67 (15:00) 4.44 (01:20) 0 0 0 0 0
07-09-2020 24.4 (17:10) 8.4 (06:30) 16.4 13.89 (18:30) 7.5 (11:20) 0 0 0 0 0
06-09-2020 29.8 (16:30) 11.6 (00:00) 20.7 9.72 (20:40) 6.39 (18:40) 0 0 0 0 0
05-09-2020 35.2 (17:20) 12.5 (00:00) 23.9 10.28 (20:30) 6.39 (20:50) 0 0 0 0 0
04-09-2020 34.7 (18:00) 9.7 (00:00) 22.2 8.89 (16:10) 4.72 (22:20) 0 0 0 0 0
03-09-2020 32.8 (18:30) 7.6 (00:00) 20.2 6.11 (16:00) 3.61 (15:40) 0 0 0 0 0
02-09-2020 29.4 (19:10) 7.6 (00:00) 18.5 7.78 (17:00) 3.89 (16:00) 0 0 0 0 0
01-09-2020 28.5 (15:40) 11.8 (00:00) 20.2 6.94 (16:50) 3.89 (23:00) 0 0 0 0 0
31-08-2020 26.6 (18:30) 3.5 (00:00) 15.1 8.06 (17:10) 4.44 (13:40) 0 0 0 0 0
30-08-2020 21.9 (17:10) 3.5 (00:00) 12.7 10 (17:40) 4.44 (16:40) 0 0 0 0 0
29-08-2020 22.2 (18:20) 8.3 (00:00) 15.3 12.22 (18:50) 8.89 (18:40) 0 0 0 0 0
28-08-2020 28.4 (17:00) 15.1 (00:00) 21.8 11.67 (18:00) 8.61 (19:00) 0 0 0 0 0
27-08-2020 34.8 (17:30) 15.6 (00:00) 25.2 8.33 (20:20) 6.11 (20:20) 0 0 0 0 0
26-08-2020 35.5 (17:40) 12.1 (00:00) 23.8 7.78 (16:10) 5 (19:40) 0 0 0 0 0
25-08-2020 35.1 (16:50) 11.4 (00:00) 23.2 11.11 (16:40) 5.28 (15:50) 0 0 0 0 0
24-08-2020 33.3 (18:20) 10.1 (07:20) 21.7 5.83 (14:30) 3.61 (15:40) 0 0 0 0 0
23-08-2020 31.3 (18:10) 8.9 (00:00) 20.1 7.5 (17:00) 3.61 (17:10) 0 0 0 0 0
22-08-2020 30.4 (18:10) 9.5 (00:00) 19.9 7.5 (18:20) 3.61 (19:50) 0 0 0 0 0
21-08-2020 27.2 (18:20) 16 (23:59) 21.6 12.78 (14:30) 8.33 (15:10) 0 0 0 0 0
20-08-2020 33.4 (17:20) 13.9 (00:00) 23.7 13.89 (17:50) 11.11 (17:50) 0 0 0 0 0
19-08-2020 31.7 (15:00) 13.5 (00:00) 22.6 16.94 (15:20) 11.11 (16:00) 0 0 0 0 0

Gráficas

Temp. máximas Temp. mínimas Temp. medias Precipitaciones Rachas de viento máximas Velocidades máximas media en intervalos de 10 minutos

Datos horarios

Fecha y hora oficial Temperatura (ºC) Velocidad del viento (km/h) Dirección del viento Racha (km/h) Dirección de racha Precipitación (mm) Presión (hPa) Tendencia (hPa) Humedad (%)
2020-09-17 23:00:00 17.8 17 Sudeste 48 Sudeste 0 -- -- 76
2020-09-17 22:00:00 19.9 31 Sudeste 48 Sur 0 -- -- 72
2020-09-17 21:00:00 22.4 22 Sudeste 30 Sudeste 0 -- -- 57
2020-09-17 20:00:00 23.4 18 Sur 39 Sur 0 -- -- 52
2020-09-17 19:00:00 24.6 28 Sur 48 Sur 0 -- -- 48
2020-09-17 18:00:00 25.8 35 Sudeste 48 Sudeste 0 -- -- 46
2020-09-17 17:00:00 27 34 Sudeste 50 Sudeste 0 -- -- 41
2020-09-17 16:00:00 27.3 30 Sudeste 45 Sur 0 -- -- 37
2020-09-17 15:00:00 26.7 30 Sudeste 46 Sur 0 -- -- 40
2020-09-17 14:00:00 26 28 Sur 44 Sudeste 0 -- -- 43
2020-09-17 13:00:00 24.7 30 Sur 46 Sudeste 0 -- -- 49
2020-09-17 12:00:00 23.6 29 Sudeste 41 Sudeste 0 -- -- 51
2020-09-17 11:00:00 21.3 27 Sudeste 35 Sudeste 0.2 -- -- 60
2020-09-17 10:00:00 18.9 19 Sudeste 29 Sudeste 0 -- -- 70
2020-09-17 09:00:00 18.4 15 Sudeste 36 Sudeste 0 -- -- 73
2020-09-17 08:00:00 18.3 26 Sudeste 33 Sudeste 0 -- -- 71
2020-09-17 07:00:00 18.4 13 Sudeste 26 Sudeste 0 -- -- 70
2020-09-17 06:00:00 18.4 20 Sudeste 27 Sudeste 0 -- -- 70
2020-09-17 05:00:00 17.5 8 Este 17 Sudeste 0 -- -- 81
2020-09-17 04:00:00 17.3 8 Sudeste 19 Este 0 -- -- 82
2020-09-17 03:00:00 18.3 12 Este 22 Este 0 -- -- 72
2020-09-17 02:00:00 18.5 22 Sudeste 38 Sudeste 0 -- -- 67
2020-09-17 01:00:00 20.6 18 Sur 36 Sudoeste 0 -- -- 61
2020-09-17 00:00:00 19.8 28 Sur 49 Sur 0.2 -- -- 58
2020-09-16 23:00:00 22.3 20 Sur 41 Sur 0 -- -- 43
2020-09-16 22:00:00 21.9 4 Sur 12 Sudeste 0 -- -- 47
2020-09-16 21:00:00 23.4 11 Sudeste 19 Sudeste 0 -- -- 39
2020-09-16 20:00:00 26.3 14 Sudeste 27 Sur 0 -- -- 31
2020-09-16 19:00:00 28.9 18 Sudeste 28 Sudeste 0 -- -- 23
2020-09-16 18:00:00 30.2 15 Sudeste 25 Sudeste 0 -- -- 25
2020-09-16 17:00:00 29.3 13 Este 26 Sudeste 0 -- -- 30
2020-09-16 16:00:00 28.5 10 Este 24 Este 0 -- -- 33
2020-09-16 15:00:00 29.5 11 Este 26 Sudeste 0 -- -- 32
2020-09-16 14:00:00 28.4 9 Este 22 Este 0 -- -- 34
2020-09-16 13:00:00 26.5 12 Este 19 Este 0 -- -- 38
2020-09-16 12:00:00 25 11 Nordeste 15 Este 0 -- -- 45
2020-09-16 11:00:00 22.2 6 Este 10 Sudeste 0 -- -- 56
2020-09-16 10:00:00 18.2 5 Sudeste 8 Sudeste 0 -- -- 70
2020-09-16 09:00:00 13.6 2 Sudeste 8 Noroeste 0 -- -- 87
2020-09-16 08:00:00 11.3 7 Noroeste 11 Noroeste 0 -- -- 89
2020-09-16 07:00:00 12.5 5 Sur 8 Sur 0 -- -- 91
2020-09-16 06:00:00 12.9 2 Sudeste 7 Sudeste 0 -- -- 89
2020-09-16 05:00:00 12.3 5 Sur 8 Sur 0 -- -- 90
2020-09-16 04:00:00 13.8 8 Sudoeste 9 Sur 0 -- -- 87
2020-09-16 03:00:00 13.7 9 Sudeste 11 Sudeste 0 -- -- 86
2020-09-16 02:00:00 14.6 3 Sur 6 Sur 0 -- -- 82
2020-09-16 01:00:00 15.5 5 Sur 10 Sudoeste 0 -- -- 77
2020-09-16 00:00:00 17.7 8 Sudoeste 9 Sudoeste 0 -- -- 68
2020-09-15 23:00:00 18.7 9 Sudoeste 15 Sudoeste 0 -- -- 63
2020-09-15 22:00:00 19.9 12 Sudoeste 13 Sudoeste 0 -- -- 58
2020-09-15 21:00:00 21.6 12 Oeste 16 Oeste 0 -- -- 52
2020-09-15 20:00:00 25.6 9 Oeste 12 Oeste 0 -- -- 42
2020-09-15 19:00:00 28 6 Noroeste 18 Noroeste 0 -- -- 38
2020-09-15 18:00:00 28 8 Norte 22 Oeste 0 -- -- 38
2020-09-15 17:00:00 28.7 6 Sur 23 Sudoeste 0 -- -- 37
2020-09-15 16:00:00 27.7 12 Sudoeste 21 Nordeste 0 -- -- 39
2020-09-15 15:00:00 26.4 10 Sudoeste 21 Sur 0 -- -- 43
2020-09-15 14:00:00 26.1 6 Sur 23 Sudoeste 0 -- -- 45
2020-09-15 13:00:00 24.6 9 Sudoeste 16 Sudoeste 0 -- -- 53
2020-09-15 12:00:00 23 7 Sur 11 Sudoeste 0.2 -- -- 65
2020-09-15 11:00:00 20.3 7 Oeste 15 Sudoeste 0 -- -- 79
2020-09-15 10:00:00 18.1 10 Sudoeste 14 Sudoeste 0 -- -- 86
2020-09-15 09:00:00 15 3 Sur 7 Este 0 -- -- 95
2020-09-15 08:00:00 12.6 3 Sur 8 Este 0 -- -- 97
2020-09-15 07:00:00 13 4 Este 8 Este 0 -- -- 96
2020-09-15 06:00:00 13.6 4 Noroeste 9 Sur 0 -- -- 95
2020-09-15 05:00:00 14.7 10 Sudeste 13 Sudeste 0 -- -- 94
2020-09-15 04:00:00 15.5 9 Sur 16 Sur 0 -- -- 92
2020-09-15 03:00:00 15.9 6 Sur 18 Sudeste 0 -- -- 91
2020-09-15 02:00:00 16.6 16 Este 19 Este 0.6 -- -- 91
2020-09-15 01:00:00 16.9 10 Oeste 37 Oeste 1 -- -- 85
2020-09-15 00:00:00 17.9 7 Nordeste 39 Sudeste 0 -- -- 69
2020-09-14 23:00:00 18.4 29 Sudeste 54 Sur 0.8 -- -- 63
2020-09-14 22:00:00 21.1 0 Calma 13 Norte 0 -- -- 44
2020-09-14 21:00:00 21.7 3 Sudeste 9 Este 0 -- -- 44
2020-09-14 20:00:00 24.2 4 Nordeste 41 Oeste 0 -- -- 42
2020-09-14 19:00:00 25.5 32 Oeste 62 Oeste 0 -- -- 40
2020-09-14 18:00:00 29.3 10 Sudoeste 38 Sudeste 0 -- -- 30
2020-09-14 17:00:00 31.1 21 Sudeste 40 Este 0 -- -- 28
2020-09-14 16:00:00 30.6 7 Sudeste 28 Sur 0 -- -- 29
2020-09-14 15:00:00 28.2 20 Sur 32 Sudoeste 0 -- -- 32
2020-09-14 14:00:00 26.7 21 Sur 31 Sudeste 0 -- -- 35
2020-09-14 13:00:00 24.1 20 Sudeste 32 Sur 0 -- -- 44
2020-09-14 12:00:00 24.2 28 Sur 39 Sur 0 -- -- 43
2020-09-14 11:00:00 22.6 30 Sur 39 Sur 0 -- -- 47
2020-09-14 10:00:00 22.3 24 Sudeste 37 Sudeste 0 -- -- 47
2020-09-14 09:00:00 22.3 22 Sudeste 35 Sur 0 -- -- 47
2020-09-14 08:00:00 20.3 22 Sur 32 Sur 0 -- -- 52
2020-09-14 07:00:00 20.6 21 Sur 33 Sur 0 -- -- 51
2020-09-14 06:00:00 21 23 Sudeste 35 Sur 0 -- -- 49
2020-09-14 05:00:00 21.8 22 Sur 34 Sudeste 0 -- -- 46
2020-09-14 04:00:00 22.5 25 Sudeste 40 Sudeste 0 -- -- 42
2020-09-14 03:00:00 23.2 29 Sudeste 38 Sudeste 0 -- -- 40
2020-09-14 02:00:00 22.5 21 Sudeste 28 Sudeste 0 -- -- 39
2020-09-14 01:00:00 20 13 Sudeste 17 Sudeste 0 -- -- 41
2020-09-14 00:00:00 19.1 2 Sudoeste 9 Sudoeste 0 -- -- 44
2020-09-13 23:00:00 20.9 10 Sudoeste 12 Sudeste 0 -- -- 39
2020-09-13 22:00:00 22.7 10 Sudeste 22 Sudeste 0 -- -- 35
2020-09-13 21:00:00 27.2 19 Sur 34 Sudeste 0 -- -- 30
2020-09-13 20:00:00 29.2 18 Sudeste 29 Sudeste 0 -- -- 26
2020-09-13 19:00:00 31.6 22 Sudeste 30 Sudeste 0 -- -- 23
2020-09-13 18:00:00 32.3 23 Sudeste 32 Sudeste 0 -- -- 22
2020-09-13 17:00:00 31.9 22 Sudeste 37 Sur 0 -- -- 22
2020-09-13 16:00:00 33.4 15 Sudeste 36 Sudeste 0 -- -- 21
2020-09-13 15:00:00 33.8 4 Norte 15 Este 0 -- -- 21
2020-09-13 14:00:00 32.2 5 Sudoeste 10 Sur 0 -- -- 25
2020-09-13 13:00:00 29.1 8 Oeste 12 Oeste 0 -- -- 26
2020-09-13 12:00:00 28.8 8 Sudoeste 19 Sudeste 0 -- -- 28
2020-09-13 11:00:00 27.7 16 Sudeste 23 Sudeste 0 -- -- 32
2020-09-13 10:00:00 23.7 4 Este 7 Este 0 -- -- 38
2020-09-13 09:00:00 15.9 3 Nordeste 8 Nordeste 0 -- -- 45
2020-09-13 08:00:00 13.5 6 Nordeste 13 Nordeste 0 -- -- 48
2020-09-13 07:00:00 13 6 Nordeste 10 Nordeste 0 -- -- 46
2020-09-13 06:00:00 12.1 0 Calma 14 Nordeste 0 -- -- 46
2020-09-13 05:00:00 11.8 3 Noroeste 12 Sudeste 0 -- -- 46
2020-09-13 04:00:00 14.3 6 Nordeste 12 Nordeste 0 -- -- 38
2020-09-13 03:00:00 14.5 4 Este 6 Este 0 -- -- 36
2020-09-13 02:00:00 15 2 Norte 9 Nordeste 0 -- -- 36
2020-09-13 01:00:00 17 6 Nordeste 10 Nordeste 0 -- -- 31
2020-09-13 00:00:00 17.4 7 Este 12 Este 0 -- -- 30
2020-09-12 23:00:00 18.6 8 Este 17 Nordeste 0 -- -- 29
2020-09-12 22:00:00 22.9 11 Nordeste 15 Nordeste 0 -- -- 24
2020-09-12 21:00:00 24.8 9 Norte 16 Norte 0 -- -- 23
2020-09-12 20:00:00 28.4 10 Norte 18 Norte 0 -- -- 19
2020-09-12 19:00:00 30.9 10 Norte 19 Norte 0 -- -- 17
2020-09-12 18:00:00 32.8 7 Este 18 Este 0 -- -- 16
2020-09-12 17:00:00 33.2 6 Nordeste 18 Noroeste 0 -- -- 16
2020-09-12 16:00:00 32.4 6 Sudoeste 27 Este 0 -- -- 18
2020-09-12 15:00:00 31.7 12 Nordeste 26 Este 0 -- -- 17
2020-09-12 14:00:00 30.8 14 Este 30 Nordeste 0 -- -- 17
2020-09-12 13:00:00 29.4 20 Nordeste 29 Nordeste 0 -- -- 23
2020-09-12 12:00:00 27 13 Este 19 Este 0 -- -- 29
2020-09-12 11:00:00 22.7 9 Nordeste 14 Este 0 -- -- 36
2020-09-12 10:00:00 18.8 8 Nordeste 13 Nordeste 0 -- -- 45
2020-09-12 09:00:00 14.4 0 Calma 4 Nordeste 0 -- -- 50
2020-09-12 08:00:00 9.1 0 Calma 5 Noroeste 0 -- -- 62
2020-09-12 07:00:00 9.9 0 Calma 4 Este 0 -- -- 58
2020-09-12 06:00:00 10.8 0 Calma 6 Norte 0 -- -- 56
2020-09-12 05:00:00 11 0 Calma 4 Sur 0 -- -- 55
2020-09-12 04:00:00 12.1 2 Norte 6 Sudoeste 0 -- -- 49
2020-09-12 03:00:00 13.2 3 Noroeste 13 Norte 0 -- -- 49
2020-09-12 02:00:00 14.3 0 Calma 4 Este 0 -- -- 46
2020-09-12 01:00:00 17.2 5 Este 10 Este 0 -- -- 40
2020-09-12 00:00:00 18.3 6 Sudeste 11 Nordeste 0 -- -- 40
2020-09-11 23:00:00 19.3 4 Este 12 Nordeste 0 -- -- 39
2020-09-11 22:00:00 22.5 6 Nordeste 14 Nordeste 0 -- -- 34
2020-09-11 21:00:00 24.8 9 Nordeste 12 Nordeste 0 -- -- 31
2020-09-11 20:00:00 26.9 8 Norte 15 Noroeste 0 -- -- 26
2020-09-11 19:00:00 29.1 7 Nordeste 18 Noroeste 0 -- -- 23
2020-09-11 18:00:00 30.8 10 Norte 22 Norte 0 -- -- 20
2020-09-11 17:00:00 31.1 10 Norte 21 Norte 0 -- -- 21
2020-09-11 16:00:00 30.5 7 Norte 21 Oeste 0 -- -- 22
2020-09-11 15:00:00 30.1 9 Norte 18 Nordeste 0 -- -- 24
2020-09-11 14:00:00 29 6 Nordeste 17 Nordeste 0 -- -- 25
2020-09-11 13:00:00 27.2 5 Nordeste 13 Norte 0 -- -- 28
2020-09-11 12:00:00 24 10 Nordeste 17 Norte 0 -- -- 34
2020-09-11 11:00:00 21.2 5 Nordeste 13 Nordeste 0 -- -- 39
2020-09-11 10:00:00 17.4 9 Nordeste 14 Nordeste 0 -- -- 48
2020-09-11 09:00:00 14 3 Norte 5 Norte 0 -- -- 55
2020-09-11 08:00:00 7.9 0 Calma 4 Nordeste 0 -- -- 63
2020-09-11 07:00:00 9.5 0 Calma 4 Norte 0 -- -- 57
2020-09-11 06:00:00 9.8 2 Nordeste 4 Norte 0 -- -- 61
2020-09-11 05:00:00 10.8 4 Este 5 Nordeste 0 -- -- 54
2020-09-11 04:00:00 11.5 3 Este 6 Nordeste 0 -- -- 54
2020-09-11 03:00:00 11.6 3 Nordeste 5 Nordeste 0 -- -- 50
2020-09-11 02:00:00 12.4 3 Oeste 4 Oeste 0 -- -- 49
2020-09-11 01:00:00 14.2 2 Sur 3 Sur 0 -- -- 46
2020-09-11 00:00:00 14.9 2 Nordeste 9 Noroeste 0 -- -- 42
2020-09-10 23:00:00 16.8 0 Calma 4 Este 0 -- -- 39
2020-09-10 22:00:00 19.2 2 Norte 8 Nordeste 0 -- -- 34
2020-09-10 21:00:00 22.5 6 Norte 17 Norte 0 -- -- 30
2020-09-10 20:00:00 27.8 6 Norte 17 Nordeste 0 -- -- 24
2020-09-10 19:00:00 29.9 11 Noroeste 21 Noroeste 0 -- -- 22
2020-09-10 18:00:00 29.9 8 Norte 24 Noroeste 0 -- -- 23
2020-09-10 17:00:00 30.3 10 Noroeste 23 Norte 0 -- -- 22
2020-09-10 16:00:00 28.9 13 Nordeste 26 Norte 0 -- -- 25
2020-09-10 15:00:00 28.4 10 Norte 22 Norte 0 -- -- 28
2020-09-10 14:00:00 27.4 11 Norte 20 Noroeste 0 -- -- 29
2020-09-10 13:00:00 25.7 9 Nordeste 21 Norte 0 -- -- 34
2020-09-10 12:00:00 23.6 8 Nordeste 14 Nordeste 0 -- -- 41
2020-09-10 11:00:00 20.2 8 Norte 12 Nordeste 0 -- -- 49
2020-09-10 10:00:00 17.2 5 Norte 8 Norte 0 -- -- 60
2020-09-10 09:00:00 14.6 3 Noroeste 7 Oeste 0 -- -- 59
2020-09-10 08:00:00 8.2 3 Sudoeste 5 Sudoeste 0 -- -- 70
2020-09-10 07:00:00 9.2 0 Calma 6 Nordeste 0 -- -- 64
2020-09-10 06:00:00 9.4 0 Calma 4 Noroeste 0 -- -- 64
2020-09-10 05:00:00 10.7 3 Norte 6 Oeste 0 -- -- 52
2020-09-10 04:00:00 10.6 4 Sudoeste 6 Oeste 0 -- -- 57
2020-09-10 03:00:00 11.7 4 Oeste 9 Oeste 0 -- -- 53
2020-09-10 02:00:00 12.8 2 Sudeste 4 Norte 0 -- -- 49
2020-09-10 01:00:00 14.9 2 Norte 12 Este 0 -- -- 43
2020-09-10 00:00:00 17.9 9 Nordeste 12 Nordeste 0 -- -- 40
2020-09-09 23:00:00 16.8 3 Oeste 8 Oeste 0 -- -- 38
2020-09-09 22:00:00 18.8 5 Oeste 8 Norte 0 -- -- 34
2020-09-09 21:00:00 23.1 5 Norte 8 Norte 0 -- -- 28
2020-09-09 20:00:00 27.4 8 Norte 19 Noroeste 0 -- -- 23
2020-09-09 19:00:00 28.9 10 Norte 23 Noroeste 0 -- -- 21
2020-09-09 18:00:00 29.6 6 Norte 25 Noroeste 0 -- -- 20
2020-09-09 17:00:00 29.2 10 Noroeste 22 Norte 0 -- -- 21
2020-09-09 16:00:00 29 11 Noroeste 25 Noroeste 0 -- -- 21
2020-09-09 15:00:00 29.1 7 Norte 19 Norte 0 -- -- 19
2020-09-09 14:00:00 28.4 6 Sudoeste 17 Noroeste 0 -- -- 22
2020-09-09 13:00:00 26.3 7 Noroeste 21 Oeste 0 -- -- 27
2020-09-09 12:00:00 25.3 9 Noroeste 15 Noroeste 0 -- -- 28
2020-09-09 11:00:00 21.9 4 Oeste 9 Sudoeste 0 -- -- 36
2020-09-09 10:00:00 17.9 4 Oeste 14 Nordeste 0 -- -- 45
2020-09-09 09:00:00 12.8 5 Nordeste 10 Nordeste 0 -- -- 52
2020-09-09 08:00:00 9 5 Sudeste 9 Este 0 -- -- 63
2020-09-09 07:00:00 8.8 8 Este 11 Sudeste 0 -- -- 59
2020-09-09 06:00:00 9.5 5 Sudeste 10 Sudeste 0 -- -- 59
2020-09-09 05:00:00 10.5 6 Sudeste 9 Sudeste 0 -- -- 54
2020-09-09 04:00:00 10.9 3 Sudeste 8 Este 0 -- -- 51
2020-09-09 03:00:00 10.8 7 Este 13 Este 0 -- -- 49
2020-09-09 02:00:00 12.7 9 Nordeste 14 Nordeste 0 -- -- 46
2020-09-09 01:00:00 13.9 7 Sur 14 Sur 0 -- -- 42
2020-09-09 00:00:00 14.7 11 Sur 13 Sur 0 -- -- 39
2020-09-08 23:00:00 16 4 Sur 10 Sudoeste 0 -- -- 36
2020-09-08 22:00:00 19 2 Sur 13 Sur 0 -- -- 31
2020-09-08 21:00:00 20.5 12 Sudeste 16 Sudeste 0 -- -- 25
2020-09-08 20:00:00 25.9 9 Nordeste 19 Nordeste 0 -- -- 19
2020-09-08 19:00:00 27 12 Nordeste 19 Nordeste 0 -- -- 17
2020-09-08 18:00:00 27.5 8 Norte 23 Este 0 -- -- 18
2020-09-08 17:00:00 27.7 8 Nordeste 22 Nordeste 0 -- -- 19
2020-09-08 16:00:00 26.1 8 Nordeste 21 Este 0 -- -- 21
2020-09-08 15:00:00 24.8 11 Nordeste 24 Nordeste 0 -- -- 24
2020-09-08 14:00:00 22.8 8 Nordeste 20 Norte 0 -- -- 29
2020-09-08 13:00:00 20.4 13 Norte 23 Norte 0 -- -- 35
2020-09-08 12:00:00 17.8 11 Nordeste 21 Norte 0 -- -- 43
2020-09-08 11:00:00 14.7 12 Nordeste 19 Nordeste 0 -- -- 52
2020-09-08 10:00:00 11.9 12 Nordeste 17 Este 0 -- -- 63
2020-09-08 09:00:00 9.8 5 Nordeste 8 Nordeste 0 -- -- 74
2020-09-08 08:00:00 6.1 3 Nordeste 12 Nordeste 0 -- -- 87
2020-09-08 07:00:00 6.1 4 Norte 11 Norte 0 -- -- 87
2020-09-08 06:00:00 7.4 8 Norte 10 Norte 0 -- -- 80
2020-09-08 05:00:00 5.5 4 Sudoeste 6 Sudoeste 0 -- -- 79
2020-09-08 04:00:00 7.2 3 Sur 6 Nordeste 0 -- -- 74
2020-09-08 03:00:00 9.3 5 Nordeste 16 Nordeste 0 -- -- 69
2020-09-08 02:00:00 11.8 9 Nordeste 23 Nordeste 0 -- -- 61
2020-09-08 01:00:00 12.5 12 Norte 21 Norte 0 -- -- 57
2020-09-08 00:00:00 14.3 12 Nordeste 24 Nordeste 0 -- -- 52
2020-09-07 23:00:00 15.4 15 Nordeste 22 Nordeste 0 -- -- 49
2020-09-07 22:00:00 17 13 Nordeste 21 Nordeste 0 -- -- 43
2020-09-07 21:00:00 18.7 15 Nordeste 32 Nordeste 0 -- -- 38
2020-09-07 20:00:00 21.6 22 Nordeste 31 Nordeste 0 -- -- 33
2020-09-07 19:00:00 23.3 18 Norte 50 Nordeste 0 -- -- 30
2020-09-07 18:00:00 23.8 19 Nordeste 31 Nordeste 0 -- -- 31
2020-09-07 17:00:00 23.9 17 Nordeste 32 Nordeste 0 -- -- 30
2020-09-07 16:00:00 23.2 20 Nordeste 46 Nordeste 0 -- -- 30
2020-09-07 15:00:00 22.3 19 Nordeste 31 Norte 0 -- -- 33
2020-09-07 14:00:00 21.2 19 Nordeste 39 Este 0 -- -- 38
2020-09-07 13:00:00 20 20 Nordeste 39 Nordeste 0 -- -- 41
2020-09-07 12:00:00 18.8 22 Nordeste 39 Este 0 -- -- 45
2020-09-07 11:00:00 17.2 22 Nordeste 32 Nordeste 0 -- -- 49
2020-09-07 10:00:00 15.7 12 Este 25 Este 0 -- -- 59
2020-09-07 09:00:00 12.6 6 Nordeste 11 Nordeste 0 -- -- 72
2020-09-07 08:00:00 9.5 5 Nordeste 10 Nordeste 0 -- -- 82
2020-09-07 07:00:00 9.7 8 Nordeste 10 Nordeste 0 -- -- 81
2020-09-07 06:00:00 9.9 5 Norte 12 Nordeste 0 -- -- 78
2020-09-07 05:00:00 11.1 5 Norte 10 Norte 0 -- -- 75
2020-09-07 04:00:00 12 7 Norte 17 Nordeste 0 -- -- 73
2020-09-07 03:00:00 12.4 11 Norte 15 Nordeste 0 -- -- 69
2020-09-07 02:00:00 13.5 7 Nordeste 14 Nordeste 0 -- -- 63
2020-09-07 01:00:00 14.5 10 Nordeste 17 Nordeste 0 -- -- 59
2020-09-07 00:00:00 15.7 13 Nordeste 26 Nordeste 0 -- -- 55
2020-09-06 23:00:00 17.2 17 Nordeste 27 Nordeste 0 -- -- 50
2020-09-06 22:00:00 19.2 21 Nordeste 34 Nordeste 0 -- -- 44
2020-09-06 21:00:00 21.8 16 Nordeste 35 Nordeste 0 -- -- 40
2020-09-06 20:00:00 24.7 22 Norte 33 Norte 0 -- -- 38
2020-09-06 19:00:00 27.1 22 Norte 33 Norte 0 -- -- 33
2020-09-06 18:00:00 29.3 17 Nordeste 28 Norte 0 -- -- 31
2020-09-06 17:00:00 29.7 15 Norte 30 Norte 0 -- -- 31
2020-09-06 16:00:00 29.7 16 Norte 28 Norte 0 -- -- 32
2020-09-06 15:00:00 28.3 9 Nordeste 18 Norte 0 -- -- 34
2020-09-06 14:00:00 26.7 8 Nordeste 21 Norte 0 -- -- 38
2020-09-06 13:00:00 24.1 9 Nordeste 19 Nordeste 0 -- -- 45
2020-09-06 12:00:00 21.7 8 Norte 17 Nordeste 0 -- -- 53
2020-09-06 11:00:00 19.4 7 Nordeste 15 Nordeste 0 -- -- 60
2020-09-06 10:00:00 16.6 7 Nordeste 17 Norte 0 -- -- 70
2020-09-06 09:00:00 13 4 Norte 10 Norte 0 -- -- 85
2020-09-06 08:00:00 11.8 8 Norte 11 Norte 0 -- -- 87
2020-09-06 07:00:00 12.7 8 Norte 13 Norte 0 -- -- 86
2020-09-06 06:00:00 13.4 9 Norte 18 Norte 0 -- -- 84
2020-09-06 05:00:00 13.2 12 Norte 15 Norte 0 -- -- 84
2020-09-06 04:00:00 13.5 5 Norte 10 Norte 0 -- -- 80
2020-09-06 03:00:00 15.3 9 Norte 16 Norte 0 -- -- 76
2020-09-06 02:00:00 16.1 9 Norte 18 Nordeste 0 -- -- 72
2020-09-06 01:00:00 17.2 10 Norte 22 Norte 0 -- -- 68
2020-09-06 00:00:00 19 13 Norte 22 Nordeste 0 -- -- 61
2020-09-05 23:00:00 21.5 12 Nordeste 28 Norte 0 -- -- 51
2020-09-05 22:00:00 23.6 20 Nordeste 32 Nordeste 0 -- -- 46
2020-09-05 21:00:00 26.6 23 Nordeste 37 Nordeste 0 -- -- 36
2020-09-05 20:00:00 30.4 18 Nordeste 28 Norte 0 -- -- 27
2020-09-05 19:00:00 32.7 12 Norte 21 Norte 0 -- -- 18
2020-09-05 18:00:00 34.5 8 Oeste 15 Norte 0 -- -- 17
2020-09-05 17:00:00 33.9 9 Nordeste 20 Norte 0 -- -- 17
2020-09-05 16:00:00 34.6 8 Noroeste 20 Norte 0 -- -- 18
2020-09-05 15:00:00 32.6 8 Norte 16 Norte 0 -- -- 21
2020-09-05 14:00:00 30.3 7 Norte 18 Nordeste 0 -- -- 25
2020-09-05 13:00:00 28.4 5 Nordeste 11 Norte 0 -- -- 27
2020-09-05 12:00:00 26.1 4 Norte 8 Noroeste 0 -- -- 31
2020-09-05 11:00:00 24.6 4 Noroeste 8 Oeste 0 -- -- 34
2020-09-05 10:00:00 20.7 6 Oeste 13 Sudoeste 0 -- -- 42
2020-09-05 09:00:00 16.8 9 Sudoeste 12 Sudoeste 0 -- -- 53
2020-09-05 08:00:00 12.5 7 Sudoeste 10 Sudoeste 0 -- -- 61
2020-09-05 07:00:00 13.7 4 Sudoeste 13 Sudoeste 0 -- -- 57
2020-09-05 06:00:00 14.8 13 Sudoeste 17 Sudoeste 0 -- -- 53
2020-09-05 05:00:00 15 11 Sudoeste 17 Sudoeste 0 -- -- 52
2020-09-05 04:00:00 14.7 8 Sur 11 Sudoeste 0 -- -- 54
2020-09-05 03:00:00 15.5 6 Sudoeste 10 Sur 0 -- -- 49
2020-09-05 02:00:00 17.1 3 Sudoeste 23 Oeste 0 -- -- 45
2020-09-05 01:00:00 18.8 10 Sur 15 Sur 0 -- -- 41
2020-09-05 00:00:00 20.1 11 Sur 17 Sudeste 0 -- -- 37
2020-09-04 23:00:00 22.6 13 Sudeste 23 Sudeste 0 -- -- 32
2020-09-04 22:00:00 23.1 5 Nordeste 11 Norte 0 -- -- 27
2020-09-04 21:00:00 27.3 10 Norte 14 Norte 0 -- -- 22
2020-09-04 20:00:00 32.9 5 Noroeste 15 Noroeste 0 -- -- 17
2020-09-04 19:00:00 33.8 8 Noroeste 20 Noroeste 0 -- -- 16
2020-09-04 18:00:00 34.7 6 Oeste 23 Oeste 0 -- -- 16
2020-09-04 17:00:00 33.9 8 Oeste 32 Sudoeste 0 -- -- 16
2020-09-04 16:00:00 33.1 12 Oeste 23 Oeste 0 -- -- 17
2020-09-04 15:00:00 33 3 Nordeste 20 Sudoeste 0 -- -- 18
2020-09-04 14:00:00 32.1 12 Noroeste 22 Noroeste 0 -- -- 18
2020-09-04 13:00:00 30.3 13 Oeste 21 Oeste 0 -- -- 21
2020-09-04 12:00:00 29.8 5 Oeste 11 Oeste 0 -- -- 22
2020-09-04 11:00:00 27.2 4 Sudoeste 9 Sudoeste 0 -- -- 26
2020-09-04 10:00:00 23.5 2 Oeste 5 Oeste 0 -- -- 32
2020-09-04 09:00:00 17.9 0 Calma 4 Este 0 -- -- 37
2020-09-04 08:00:00 9.7 2 Sudoeste 7 Oeste 0 -- -- 57
2020-09-04 07:00:00 10.2 0 Calma 4 Oeste 0 -- -- 52
2020-09-04 06:00:00 11.3 4 Este 7 Este 0 -- -- 47
2020-09-04 05:00:00 11.2 0 Calma 5 Sudoeste 0 -- -- 49
2020-09-04 04:00:00 12.1 3 Sudoeste 5 Oeste 0 -- -- 47
2020-09-04 03:00:00 13.5 3 Este 4 Norte 0 -- -- 44
2020-09-04 02:00:00 14.4 4 Norte 9 Sur 0 -- -- 43
2020-09-04 01:00:00 17.8 3 Sudeste 19 Sudeste 0 -- -- 34
2020-09-04 00:00:00 16.9 12 Sudeste 19 Sudeste 0 -- -- 34
2020-09-03 23:00:00 17.9 0 Calma 4 Norte 0 -- -- 35
2020-09-03 22:00:00 21.4 4 Norte 9 Norte 0 -- -- 26
2020-09-03 21:00:00 24.2 7 Norte 10 Noroeste 0 -- -- 23
2020-09-03 20:00:00 30.5 6 Norte 14 Norte 0 -- -- 17
2020-09-03 19:00:00 31.8 4 Norte 14 Noroeste 0 -- -- 17
2020-09-03 18:00:00 32.4 5 Oeste 17 Norte 0 -- -- 18
2020-09-03 17:00:00 31.9 9 Oeste 15 Norte 0 -- -- 17
2020-09-03 16:00:00 31 10 Noroeste 22 Noroeste 0 -- -- 20
2020-09-03 15:00:00 30.1 5 Este 17 Nordeste 0 -- -- 21
2020-09-03 14:00:00 28.6 10 Norte 19 Nordeste 0 -- -- 25
2020-09-03 13:00:00 26.7 9 Nordeste 19 Nordeste 0 -- -- 28
2020-09-03 12:00:00 25.1 6 Nordeste 13 Norte 0 -- -- 28
2020-09-03 11:00:00 21.6 4 Nordeste 8 Nordeste 0 -- -- 34
2020-09-03 10:00:00 17.8 4 Nordeste 6 Nordeste 0 -- -- 40
2020-09-03 09:00:00 14.7 0 Calma 6 Oeste 0 -- -- 47
2020-09-03 08:00:00 7.8 3 Sudoeste 10 Sur 0 -- -- 63
2020-09-03 07:00:00 7.9 7 Sur 15 Sur 0 -- -- 66
2020-09-03 06:00:00 8.8 0 Calma 2 Norte 0 -- -- 63
2020-09-03 05:00:00 9 0 Calma 3 Oeste 0 -- -- 59
2020-09-03 04:00:00 10.3 2 Sur 3 Sur 0 -- -- 55
2020-09-03 03:00:00 10.6 2 Oeste 3 Oeste 0 -- -- 56
2020-09-03 02:00:00 11.3 0 Calma 3 Sur 0 -- -- 53
2020-09-03 01:00:00 12.9 0 Calma 4 Este 0 -- -- 49
2020-09-03 00:00:00 14.4 3 Este 4 Este 0 -- -- 42
2020-09-02 23:00:00 15.9 0 Calma 8 Nordeste 0 -- -- 38
2020-09-02 22:00:00 20.8 6 Norte 8 Norte 0 -- -- 32
2020-09-02 21:00:00 22.6 6 Norte 14 Norte 0 -- -- 28
2020-09-02 20:00:00 27 8 Norte 16 Norte 0 -- -- 23
2020-09-02 19:00:00 29 5 Norte 22 Norte 0 -- -- 21
2020-09-02 18:00:00 28.5 12 Norte 26 Norte 0 -- -- 21
2020-09-02 17:00:00 27.8 12 Norte 28 Norte 0 -- -- 23
2020-09-02 16:00:00 28.2 14 Noroeste 21 Noroeste 0 -- -- 23
2020-09-02 15:00:00 28 5 Noroeste 20 Nordeste 0 -- -- 24
2020-09-02 14:00:00 26.4 8 Nordeste 20 Este 0 -- -- 26
2020-09-02 13:00:00 23.8 11 Nordeste 21 Nordeste 0 -- -- 31
2020-09-02 12:00:00 21.6 5 Nordeste 17 Nordeste 0 -- -- 37
2020-09-02 11:00:00 17.8 9 Nordeste 17 Nordeste 0 -- -- 47
2020-09-02 10:00:00 15.8 6 Nordeste 14 Nordeste 0 -- -- 55
2020-09-02 09:00:00 13.9 3 Norte 7 Norte 0 -- -- 62
2020-09-02 08:00:00 8.2 0 Calma 7 Norte 0 -- -- 77
2020-09-02 07:00:00 9.7 5 Nordeste 9 Norte 0 -- -- 75
2020-09-02 06:00:00 10 8 Norte 11 Norte 0 -- -- 74
2020-09-02 05:00:00 9 6 Noroeste 12 Oeste 0 -- -- 77
2020-09-02 04:00:00 9.3 3 Oeste 4 Norte 0 -- -- 69
2020-09-02 03:00:00 11.6 4 Nordeste 13 Nordeste 0 -- -- 61
2020-09-02 02:00:00 14.4 10 Nordeste 15 Nordeste 0 -- -- 53
2020-09-02 01:00:00 16.2 12 Nordeste 22 Nordeste 0 -- -- 46
2020-09-02 00:00:00 17.8 13 Nordeste 18 Nordeste 0 -- -- 38
2020-09-01 23:00:00 19.5 14 Nordeste 19 Nordeste 0 -- -- 30
2020-09-01 22:00:00 17.7 6 Noroeste 10 Noroeste 0 -- -- 29
2020-09-01 21:00:00 22.2 8 Noroeste 10 Noroeste 0 -- -- 23
2020-09-01 20:00:00 27.4 9 Noroeste 17 Noroeste 0 -- -- 17
2020-09-01 19:00:00 27.1 8 Norte 16 Norte 0 -- -- 17
2020-09-01 18:00:00 27.4 6 Noroeste 16 Oeste 0 -- -- 15
2020-09-01 17:00:00 28.3 9 Noroeste 25 Norte 0 -- -- 14
2020-09-01 16:00:00 28.5 6 Noroeste 19 Noroeste 0 -- -- 15
2020-09-01 15:00:00 27.8 9 Noroeste 18 Oeste 0 -- -- 17
2020-09-01 14:00:00 26.4 9 Oeste 16 Noroeste 0 -- -- 17
2020-09-01 13:00:00 25.3 5 Nordeste 15 Este 0 -- -- 21
2020-09-01 12:00:00 23.5 8 Este 13 Este 0 -- -- 23
2020-09-01 11:00:00 19.2 4 Este 9 Este 0 -- -- 31
2020-09-01 10:00:00 15.8 2 Sur 5 Sudeste 0 -- -- 37
2020-09-01 09:00:00 13.3 3 Este 5 Norte 0 -- -- 45
2020-09-01 08:00:00 11.8 4 Oeste 18 Sur 0 -- -- 49
2020-09-01 07:00:00 12.7 5 Sudeste 11 Sudeste 0 -- -- 43
2020-09-01 06:00:00 12.4 2 Sudoeste 10 Este 0 -- -- 45
2020-09-01 05:00:00 12.9 2 Este 6 Norte 0 -- -- 44
2020-09-01 04:00:00 12.6 4 Norte 5 Norte 0 -- -- 45
2020-09-01 03:00:00 12.3 0 Calma 4 Sur 0 -- -- 43
2020-09-01 02:00:00 12.7 0 Calma 10 Sur 0 -- -- 41
2020-09-01 01:00:00 13.8 9 Sur 11 Sur 0 -- -- 37
2020-09-01 00:00:00 14.6 5 Sur 6 Sudeste 0 -- -- 35
2020-08-31 23:00:00 14.4 4 Este 8 Nordeste 0 -- -- 36
2020-08-31 22:00:00 18.1 7 Nordeste 13 Nordeste 0 -- -- 30
2020-08-31 21:00:00 19.7 8 Nordeste 14 Norte 0 -- -- 28
2020-08-31 20:00:00 24.5 9 Norte 15 Norte 0 -- -- 22
2020-08-31 19:00:00 26.1 9 Noroeste 21 Noroeste 0 -- -- 20
2020-08-31 18:00:00 24.6 7 Sudoeste 29 Sudoeste 0 -- -- 21
2020-08-31 17:00:00 26.2 9 Noroeste 26 Oeste 0 -- -- 20
2020-08-31 16:00:00 23.9 10 Oeste 27 Noroeste 0 -- -- 21
2020-08-31 15:00:00 24.1 12 Oeste 24 Oeste 0 -- -- 22
2020-08-31 14:00:00 23.1 13 Oeste 26 Sudoeste 0 -- -- 24
2020-08-31 13:00:00 22 10 Sudeste 20 Sudeste 0 -- -- 26
2020-08-31 12:00:00 20.6 6 Este 14 Este 0 -- -- 30
2020-08-31 11:00:00 17.2 3 Norte 8 Noroeste 0 -- -- 38
2020-08-31 10:00:00 14.3 3 Norte 5 Nordeste 0 -- -- 49
2020-08-31 09:00:00 9.9 0 Calma 5 Nordeste 0 -- -- 64
2020-08-31 08:00:00 3.6 0 Calma 5 Este 0 -- -- 77
2020-08-31 07:00:00 3.9 5 Este 5 Este 0 -- -- 81
2020-08-31 06:00:00 4.2 2 Este 9 Nordeste 0 -- -- 81
2020-08-31 05:00:00 5.5 4 Nordeste 6 Nordeste 0 -- -- 76
2020-08-31 04:00:00 7.1 6 Nordeste 9 Nordeste 0 -- -- 74
2020-08-31 03:00:00 6.2 0 Calma 6 Nordeste 0 -- -- 70
2020-08-31 02:00:00 9.8 4 Nordeste 9 Nordeste 0 -- -- 62
2020-08-31 01:00:00 10.2 8 Este 11 Este 0 -- -- 58
2020-08-31 00:00:00 11.9 9 Nordeste 17 Nordeste 0 -- -- 50
2020-08-30 23:00:00 12.4 8 Este 14 Nordeste 0 -- -- 45
2020-08-30 22:00:00 13.4 4 Este 10 Nordeste 0 -- -- 42
2020-08-30 21:00:00 16.1 7 Norte 15 Norte 0 -- -- 37
2020-08-30 20:00:00 18.8 4 Norte 16 Nordeste 0 -- -- 31
2020-08-30 19:00:00 19.9 5 Nordeste 21 Nordeste 0 -- -- 31
2020-08-30 18:00:00 21.2 14 Nordeste 36 Norte 0 -- -- 30
2020-08-30 17:00:00 20.6 8 Norte 22 Norte 0 -- -- 32
2020-08-30 16:00:00 18.9 8 Norte 20 Norte 0 -- -- 36
2020-08-30 15:00:00 18 9 Norte 22 Nordeste 0 -- -- 39
2020-08-30 14:00:00 17.3 11 Norte 22 Norte 0 -- -- 42
2020-08-30 13:00:00 17.4 8 Norte 19 Norte 0 -- -- 44
2020-08-30 12:00:00 16.3 11 Nordeste 20 Este 0 -- -- 49
2020-08-30 11:00:00 15 9 Este 17 Este 0 -- -- 55
2020-08-30 10:00:00 13.8 5 Este 12 Este 0 -- -- 59
2020-08-30 09:00:00 10.7 0 Calma 6 Sudeste 0 -- -- 67
2020-08-30 08:00:00 4.6 0 Calma 5 Norte 0 -- -- 86
2020-08-30 07:00:00 4.1 0 Calma 5 Sur 0 -- -- 85
2020-08-30 06:00:00 4.7 3 Sudoeste 6 Sudoeste 0 -- -- 85
2020-08-30 05:00:00 5.7 0 Calma 3 Este 0 -- -- 81
2020-08-30 04:00:00 6.7 3 Este 4 Sudeste 0 -- -- 76
2020-08-30 03:00:00 7.6 5 Sudeste 11 Este 0 -- -- 76
2020-08-30 02:00:00 8.8 7 Este 13 Este 0 -- -- 73
2020-08-30 01:00:00 11 10 Este 19 Nordeste 0 -- -- 69
2020-08-30 00:00:00 11.7 8 Este 16 Nordeste 0 -- -- 65
2020-08-29 23:00:00 13.9 10 Nordeste 25 Norte 0 -- -- 57
2020-08-29 22:00:00 15.8 19 Norte 33 Norte 0 -- -- 48
2020-08-29 21:00:00 17.3 28 Norte 39 Norte 0 -- -- 42
2020-08-29 20:00:00 19.1 27 Norte 41 Norte 0 -- -- 45
2020-08-29 19:00:00 20.4 29 Norte 44 Norte 0 -- -- 33
2020-08-29 18:00:00 21.8 27 Noroeste 42 Noroeste 0 -- -- 33
2020-08-29 17:00:00 21 21 Noroeste 37 Noroeste 0 -- -- 32
2020-08-29 16:00:00 21.7 24 Noroeste 40 Noroeste 0 -- -- 34
2020-08-29 15:00:00 20.4 21 Noroeste 36 Norte 0 -- -- 37
2020-08-29 14:00:00 19.9 21 Noroeste 34 Norte 0 -- -- 37
2020-08-29 13:00:00 18.5 20 Noroeste 37 Noroeste 0 -- -- 42
2020-08-29 12:00:00 17.9 19 Noroeste 35 Noroeste 0 -- -- 46
2020-08-29 11:00:00 16.4 15 Noroeste 22 Noroeste 0 -- -- 53
2020-08-29 10:00:00 14.3 6 Norte 12 Norte 0 -- -- 57
2020-08-29 09:00:00 14.1 5 Noroeste 9 Noroeste 0 -- -- 57
2020-08-29 08:00:00 9.2 9 Noroeste 19 Noroeste 0 -- -- 73
2020-08-29 07:00:00 9.7 15 Noroeste 21 Norte 0 -- -- 71
2020-08-29 06:00:00 8.8 4 Noroeste 11 Noroeste 0 -- -- 82
2020-08-29 05:00:00 9.3 8 Noroeste 11 Noroeste 0 -- -- 81
2020-08-29 04:00:00 11.6 2 Norte 11 Nordeste 0 -- -- 73
2020-08-29 03:00:00 13.2 8 Nordeste 12 Este 0 -- -- 70
2020-08-29 02:00:00 14.3 6 Nordeste 23 Norte 0 -- -- 66
2020-08-29 01:00:00 14.9 15 Norte 21 Norte 0 -- -- 64
2020-08-29 00:00:00 15.4 12 Norte 31 Noroeste 0 -- -- 63
2020-08-28 23:00:00 17.3 24 Noroeste 36 Noroeste 0 -- -- 40
2020-08-28 22:00:00 18.7 23 Noroeste 38 Noroeste 0 -- -- 39
2020-08-28 21:00:00 21.2 23 Noroeste 40 Oeste 0 -- -- 35
2020-08-28 20:00:00 24.5 30 Oeste 41 Oeste 0 -- -- 25
2020-08-28 19:00:00 26.7 31 Oeste 42 Oeste 0 -- -- 17
2020-08-28 18:00:00 27.7 29 Oeste 42 Oeste 0 -- -- 20
2020-08-28 17:00:00 28.4 25 Oeste 38 Oeste 0 -- -- 17
2020-08-28 16:00:00 28 17 Noroeste 39 Noroeste 0 -- -- 17
2020-08-28 15:00:00 27.1 24 Oeste 40 Oeste 0 -- -- 21
2020-08-28 14:00:00 25.9 22 Oeste 39 Oeste 0 -- -- 25
2020-08-28 13:00:00 24 15 Oeste 27 Oeste 0 -- -- 45
2020-08-28 12:00:00 23.3 6 Noroeste 17 Oeste 0 -- -- 54
2020-08-28 11:00:00 21.8 13 Oeste 26 Oeste 0 -- -- 61
2020-08-28 10:00:00 18.7 21 Oeste 27 Oeste 0 -- -- 73
2020-08-28 09:00:00 16.7 19 Sudoeste 24 Sudoeste 0 -- -- 82
2020-08-28 08:00:00 15.3 15 Sudoeste 19 Sudoeste 0 -- -- 84
2020-08-28 07:00:00 15.6 15 Sudoeste 21 Sudoeste 0 -- -- 80
2020-08-28 06:00:00 16.2 10 Sudoeste 13 Sudoeste 0 -- -- 73
2020-08-28 05:00:00 16.6 10 Oeste 15 Oeste 0 -- -- 74
2020-08-28 04:00:00 17.8 9 Oeste 15 Sudoeste 0 -- -- 69
2020-08-28 03:00:00 18.8 13 Sudoeste 15 Sudoeste 0 -- -- 64
2020-08-28 02:00:00 19.5 2 Sudoeste 5 Oeste 0 -- -- 59
2020-08-28 01:00:00 21.1 4 Noroeste 14 Noroeste 0 -- -- 55
2020-08-28 00:00:00 23.8 13 Noroeste 22 Noroeste 0 -- -- 51
2020-08-27 23:00:00 25 18 Noroeste 27 Noroeste 0 -- -- 39
2020-08-27 22:00:00 25.1 14 Oeste 19 Noroeste 0 -- -- 32
2020-08-27 21:00:00 28.9 17 Noroeste 30 Oeste 0 -- -- 25
2020-08-27 20:00:00 33 21 Noroeste 27 Noroeste 0 -- -- 22
2020-08-27 19:00:00 34.7 8 Noroeste 29 Oeste 0 -- -- 25
2020-08-27 18:00:00 34.4 10 Oeste 22 Oeste 0 -- -- 25
2020-08-27 17:00:00 34.3 10 Oeste 24 Noroeste 0 -- -- 26
2020-08-27 16:00:00 33.8 10 Oeste 19 Oeste 0 -- -- 27
2020-08-27 15:00:00 32.8 5 Norte 18 Noroeste 0 -- -- 32
2020-08-27 14:00:00 31.7 5 Sudoeste 15 Norte 0 -- -- 36
2020-08-27 13:00:00 29.7 10 Noroeste 23 Norte 0 -- -- 40
2020-08-27 12:00:00 28.1 13 Norte 20 Noroeste 0 -- -- 44
2020-08-27 11:00:00 26.7 10 Noroeste 14 Noroeste 0 -- -- 48
2020-08-27 10:00:00 23 9 Oeste 13 Oeste 0 -- -- 56
2020-08-27 09:00:00 19.5 8 Oeste 16 Sudoeste 0 -- -- 55
2020-08-27 08:00:00 15.9 12 Sudoeste 14 Sudoeste 0 -- -- 62
2020-08-27 07:00:00 15.9 12 Sudoeste 15 Sudoeste 0 -- -- 62
2020-08-27 06:00:00 16.3 12 Sudoeste 14 Sudoeste 0 -- -- 63
2020-08-27 05:00:00 17.2 8 Sudoeste 11 Sudoeste 0 -- -- 59
2020-08-27 04:00:00 17.6 10 Sudoeste 15 Oeste 0 -- -- 56
2020-08-27 03:00:00 18.4 6 Sudoeste 9 Sudoeste 0 -- -- 48
2020-08-27 02:00:00 18 4 Sudoeste 6 Sudoeste 0 -- -- 51
2020-08-27 01:00:00 19.5 5 Sudoeste 9 Sudoeste 0 -- -- 46
2020-08-27 00:00:00 19.9 8 Sudoeste 10 Sudoeste 0 -- -- 44
2020-08-26 23:00:00 21.3 3 Sur 5 Sudoeste 0 -- -- 40
2020-08-26 22:00:00 24.8 3 Norte 9 Norte 0 -- -- 35
2020-08-26 21:00:00 28 9 Norte 22 Norte 0 -- -- 30
2020-08-26 20:00:00 32.4 15 Norte 26 Noroeste 0 -- -- 23
2020-08-26 19:00:00 35.2 15 Noroeste 28 Noroeste 0 -- -- 19
2020-08-26 18:00:00 35 12 Noroeste 26 Oeste 0 -- -- 19
2020-08-26 17:00:00 34.9 10 Noroeste 28 Noroeste 0 -- -- 19
2020-08-26 16:00:00 34.4 13 Oeste 24 Oeste 0 -- -- 20
2020-08-26 15:00:00 33 11 Noroeste 20 Noroeste 0 -- -- 24
2020-08-26 14:00:00 31.1 8 Norte 17 Noroeste 0 -- -- 31
2020-08-26 13:00:00 28.8 8 Norte 17 Norte 0 -- -- 36
2020-08-26 12:00:00 26.3 8 Norte 15 Norte 0 -- -- 43
2020-08-26 11:00:00 24.7 3 Nordeste 8 Nordeste 0 -- -- 42
2020-08-26 10:00:00 20.7 5 Nordeste 10 Norte 0 -- -- 52
2020-08-26 09:00:00 18 4 Norte 8 Oeste 0 -- -- 59
2020-08-26 08:00:00 13.3 3 Sudoeste 8 Oeste 0 -- -- 60
2020-08-26 07:00:00 13.1 4 Oeste 11 Sudoeste 0 -- -- 62
2020-08-26 06:00:00 14.4 7 Sudoeste 10 Oeste 0 -- -- 59
2020-08-26 05:00:00 14.6 10 Oeste 11 Sudoeste 0 -- -- 62
2020-08-26 04:00:00 15.1 9 Sudoeste 12 Sudoeste 0 -- -- 57
2020-08-26 03:00:00 16.4 7 Sudoeste 14 Oeste 0 -- -- 51
2020-08-26 02:00:00 18.2 6 Sudoeste 15 Oeste 0 -- -- 42
2020-08-26 01:00:00 18.9 13 Oeste 14 Sudoeste 0 -- -- 38
2020-08-26 00:00:00 20.7 10 Sudoeste 12 Sudoeste 0 -- -- 30
2020-08-25 23:00:00 21.5 3 Oeste 15 Noroeste 0 -- -- 31
2020-08-25 22:00:00 24.9 12 Noroeste 17 Noroeste 0 -- -- 27
2020-08-25 21:00:00 28.3 13 Noroeste 19 Noroeste 0 -- -- 25
2020-08-25 20:00:00 34.1 14 Noroeste 27 Oeste 0 -- -- 16
2020-08-25 19:00:00 34.9 17 Oeste 29 Sudoeste 0 -- -- 16
2020-08-25 18:00:00 34.9 18 Oeste 29 Oeste 0 -- -- 17
2020-08-25 17:00:00 34.7 17 Oeste 40 Oeste 0 -- -- 18
2020-08-25 16:00:00 33.5 15 Sudoeste 28 Sudoeste 0 -- -- 20
2020-08-25 15:00:00 32.9 17 Oeste 33 Oeste 0 -- -- 22
2020-08-25 14:00:00 32.6 6 Oeste 19 Noroeste 0 -- -- 23
2020-08-25 13:00:00 30.4 6 Norte 15 Noroeste 0 -- -- 25
2020-08-25 12:00:00 28.8 7 Noroeste 13 Noroeste 0 -- -- 29
2020-08-25 11:00:00 26.7 6 Noroeste 10 Noroeste 0 -- -- 32
2020-08-25 10:00:00 22.9 4 Oeste 9 Sudoeste 0 -- -- 37
2020-08-25 09:00:00 18.1 6 Sudoeste 9 Sudoeste 0 -- -- 47
2020-08-25 08:00:00 12.7 6 Sudoeste 8 Sur 0 -- -- 61
2020-08-25 07:00:00 11.9 6 Oeste 8 Oeste 0 -- -- 63
2020-08-25 06:00:00 12.8 0 Calma 4 Sudeste 0 -- -- 60
2020-08-25 05:00:00 14 2 Norte 3 Noroeste 0 -- -- 54
2020-08-25 04:00:00 14.6 0 Calma 5 Sur 0 -- -- 52
2020-08-25 03:00:00 16.2 3 Sudoeste 13 Sur 0 -- -- 49
2020-08-25 02:00:00 16.9 8 Sur 13 Sur 0 -- -- 46
2020-08-25 01:00:00 16.6 2 Sur 4 Sur 0 -- -- 48
2020-08-25 00:00:00 18.7 3 Sur 5 Sudeste 0 -- -- 42
2020-08-24 23:00:00 19.8 3 Nordeste 8 Noroeste 0 -- -- 40
2020-08-24 22:00:00 22.4 7 Norte 10 Norte 0 -- -- 36
2020-08-24 21:00:00 26.5 8 Norte 13 Norte 0 -- -- 29
2020-08-24 20:00:00 30.6 8 Norte 18 Norte 0 -- -- 22
2020-08-24 19:00:00 31.7 10 Noroeste 18 Norte 0 -- -- 22
2020-08-24 18:00:00 32.6 7 Noroeste 18 Noroeste 0 -- -- 21
2020-08-24 17:00:00 32.3 11 Noroeste 20 Norte 0 -- -- 22
2020-08-24 16:00:00 30.8 8 Noroeste 20 Norte 0 -- -- 26
2020-08-24 15:00:00 29.7 9 Norte 21 Norte 0 -- -- 28
2020-08-24 14:00:00 28.4 9 Norte 19 Norte 0 -- -- 32
2020-08-24 13:00:00 26.3 7 Nordeste 17 Nordeste 0 -- -- 37
2020-08-24 12:00:00 23.7 8 Nordeste 16 Norte 0 -- -- 44
2020-08-24 11:00:00 20.2 9 Nordeste 14 Nordeste 0 -- -- 53
2020-08-24 10:00:00 18.6 5 Nordeste 10 Nordeste 0 -- -- 57
2020-08-24 09:00:00 15.5 8 Nordeste 13 Nordeste 0 -- -- 70
2020-08-24 08:00:00 11.1 0 Calma 2 Norte 0 -- -- 75
2020-08-24 07:00:00 10.5 0 Calma 6 Norte 0 -- -- 71
2020-08-24 06:00:00 10.7 2 Noroeste 4 Oeste 0 -- -- 69
2020-08-24 05:00:00 11.4 3 Oeste 4 Oeste 0 -- -- 62
2020-08-24 04:00:00 12.2 2 Oeste 6 Noroeste 0 -- -- 60
2020-08-24 03:00:00 12.8 2 Sur 5 Sur 0 -- -- 56
2020-08-24 02:00:00 14.4 0 Calma 4 Sudeste 0 -- -- 50
2020-08-24 01:00:00 15.6 2 Este 6 Nordeste 0 -- -- 46
2020-08-24 00:00:00 17.9 5 Nordeste 13 Nordeste 0 -- -- 42
2020-08-23 23:00:00 20.1 11 Norte 16 Norte 0 -- -- 39
2020-08-23 22:00:00 21.1 8 Noroeste 13 Norte 0 -- -- 38
2020-08-23 21:00:00 25.3 9 Norte 15 Noroeste 0 -- -- 29
2020-08-23 20:00:00 29 12 Noroeste 18 Noroeste 0 -- -- 20
2020-08-23 19:00:00 30.5 11 Noroeste 21 Noroeste 0 -- -- 21
2020-08-23 18:00:00 30.6 9 Noroeste 23 Noroeste 0 -- -- 23
2020-08-23 17:00:00 30 12 Norte 27 Noroeste 0 -- -- 24
2020-08-23 16:00:00 28.9 10 Nordeste 22 Noroeste 0 -- -- 27
2020-08-23 15:00:00 28.5 5 Nordeste 20 Nordeste 0 -- -- 29
2020-08-23 14:00:00 26.8 10 Norte 20 Norte 0 -- -- 31
2020-08-23 13:00:00 25.7 10 Norte 21 Noroeste 0 -- -- 38
2020-08-23 12:00:00 23.1 11 Norte 21 Norte 0 -- -- 48
2020-08-23 11:00:00 19.8 7 Nordeste 14 Norte 0 -- -- 59
2020-08-23 10:00:00 16.5 8 Norte 13 Norte 0 -- -- 72
2020-08-23 09:00:00 15.2 3 Nordeste 8 Nordeste 0 -- -- 70
2020-08-23 08:00:00 9.5 3 Este 4 Este 0 -- -- 72
2020-08-23 07:00:00 9.4 2 Sudeste 12 Nordeste 0 -- -- 71
2020-08-23 06:00:00 11.3 7 Nordeste 13 Norte 0 -- -- 73
2020-08-23 05:00:00 9.8 6 Este 9 Norte 0 -- -- 59
2020-08-23 04:00:00 10.3 7 Noroeste 9 Norte 0 -- -- 60
2020-08-23 03:00:00 12.6 5 Sur 14 Sudeste 0 -- -- 51
2020-08-23 02:00:00 13.2 6 Oeste 16 Oeste 0 -- -- 52
2020-08-23 01:00:00 13.7 2 Sudoeste 5 Este 0 -- -- 49
2020-08-23 00:00:00 15.9 3 Sudeste -- -- 0 -- -- 42
2020-08-22 23:00:00 17.6 3 Norte 12 Nordeste 0 -- -- 41
2020-08-22 22:00:00 20.5 9 Norte 12 Norte 0 -- -- 30
2020-08-22 21:00:00 23.4 10 Norte 17 Noroeste 0 -- -- 26
2020-08-22 20:00:00 28 13 Noroeste 22 Norte 0 -- -- 22
2020-08-22 19:00:00 29.3 11 Noroeste 27 Noroeste 0 -- -- 22
2020-08-22 18:00:00 29.8 9 Oeste 22 Noroeste 0 -- -- 21
2020-08-22 17:00:00 29 9 Noroeste 24 Oeste 0 -- -- 24
2020-08-22 16:00:00 27.9 9 Oeste 21 Noroeste 0 -- -- 25
2020-08-22 15:00:00 26.8 9 Noroeste 18 Norte 0 -- -- 32
2020-08-22 14:00:00 25.6 8 Nordeste 17 Norte 0 -- -- 37
2020-08-22 13:00:00 24.4 8 Norte 14 Norte 0 -- -- 41
2020-08-22 12:00:00 22.7 6 Nordeste 13 Norte 0 -- -- 46
2020-08-22 11:00:00 22.1 5 Norte 9 Norte 0 -- -- 50
2020-08-22 10:00:00 19.7 4 Noroeste 8 Noroeste 0 -- -- 61
2020-08-22 09:00:00 15.7 3 Sudoeste 6 Sur 0 -- -- 73
2020-08-22 08:00:00 10.5 6 Sur 7 Sudeste 0 -- -- 89
2020-08-22 07:00:00 10.5 5 Sudoeste 8 Sudoeste 0 -- -- 88
2020-08-22 06:00:00 11.4 9 Oeste 10 Oeste 0 -- -- 84
2020-08-22 05:00:00 11.9 9 Oeste 15 Oeste 0 -- -- 79
2020-08-22 04:00:00 12.4 8 Sudoeste 10 Sudoeste 0 -- -- 77
2020-08-22 03:00:00 13.3 5 Sudoeste 11 Oeste 0 -- -- 71
2020-08-22 02:00:00 14.3 5 Sudoeste 8 Sudoeste 0 -- -- 65
2020-08-22 01:00:00 14.9 4 Sur 10 Oeste 0 -- -- 62
2020-08-22 00:00:00 16 5 Sudoeste 8 Oeste 0 -- -- 57
2020-08-21 23:00:00 17.5 0 Calma 9 Noroeste 0 -- -- 49
2020-08-21 22:00:00 20 5 Noroeste 26 Noroeste 0 -- -- 42
2020-08-21 21:00:00 23.2 22 Noroeste 33 Oeste 0 -- -- 41
2020-08-21 20:00:00 25.4 26 Oeste 35 Oeste 0 -- -- 51
2020-08-21 19:00:00 26.8 24 Oeste 41 Oeste 0 -- -- 50
2020-08-21 18:00:00 25.2 24 Oeste 37 Oeste 0 -- -- 58
2020-08-21 17:00:00 24 25 Oeste 44 Oeste 0 -- -- 66
2020-08-21 16:00:00 24.9 29 Oeste 42 Oeste 0 -- -- 64
2020-08-21 15:00:00 25.3 27 Oeste 46 Oeste 0 -- -- 61
2020-08-21 14:00:00 25.9 20 Oeste 31 Oeste 0 -- -- 58
2020-08-21 13:00:00 24 15 Oeste 25 Oeste 0 -- -- 65
2020-08-21 12:00:00 24.9 13 Noroeste 22 Noroeste 0 -- -- 62
2020-08-21 11:00:00 22.7 13 Oeste 24 Sudoeste 0 -- -- 69
2020-08-21 10:00:00 22.2 14 Sudoeste 22 Sudoeste 0 -- -- 72
2020-08-21 09:00:00 21.6 11 Sur 15 Sur 0 -- -- 74
2020-08-21 08:00:00 18.2 7 Sur 12 Sur 0 -- -- 83
2020-08-21 07:00:00 17.6 10 Sur 14 Sudeste 0 -- -- 85
2020-08-21 06:00:00 17.9 5 Sudeste 10 Sudeste 0 -- -- 84
2020-08-21 05:00:00 19 7 Sudeste 19 Sudeste 0 -- -- 81
2020-08-21 04:00:00 19.4 7 Sudeste 14 Sudeste 0 -- -- 79
2020-08-21 03:00:00 17.9 8 Sudeste 12 Sudeste 0 -- -- 84
2020-08-21 02:00:00 19 11 Este 14 Este 0 -- -- 80
2020-08-21 01:00:00 18.9 5 Nordeste 13 Noroeste 0 -- -- 80
2020-08-21 00:00:00 19.3 7 Norte 31 Noroeste 0 -- -- 79
2020-08-20 23:00:00 20.8 22 Noroeste 32 Noroeste 0 -- -- 77
2020-08-20 22:00:00 25 19 Oeste 28 Oeste 0 -- -- 39
2020-08-20 21:00:00 27.3 23 Oeste 43 Sudoeste 0 -- -- 30
2020-08-20 20:00:00 29 31 Oeste 49 Sudoeste 0 -- -- 25
2020-08-20 19:00:00 29.5 37 Sudoeste 49 Sudoeste 0 -- -- 25
2020-08-20 18:00:00 30.9 35 Sudoeste 50 Sudoeste 0 -- -- 23
2020-08-20 17:00:00 31.8 32 Sudoeste 46 Sudoeste 0 -- -- 18
2020-08-20 16:00:00 33.1 27 Sudoeste 42 Sudoeste 0 -- -- 16
2020-08-20 15:00:00 31.9 22 Sudoeste 36 Sudoeste 0 -- -- 15
2020-08-20 14:00:00 30.1 13 Sudoeste 30 Sudoeste 0 -- -- 18
2020-08-20 13:00:00 28.7 19 Sudoeste 37 Sudoeste 0 -- -- 20
2020-08-20 12:00:00 26.2 27 Sudoeste 38 Sudoeste 0 -- -- 21
2020-08-20 11:00:00 25.2 28 Sudoeste 37 Sudoeste 0 -- -- 22
2020-08-20 10:00:00 23.3 21 Sudoeste 27 Sudoeste 0 -- -- 39
2020-08-20 09:00:00 22.2 4 Sudoeste 11 Sudeste 0 -- -- 39
2020-08-20 08:00:00 16.4 5 Sur 12 Sudeste 0 -- -- 40
2020-08-20 07:00:00 15.8 5 Sur 12 Sudeste 0 -- -- 42
2020-08-20 06:00:00 14.7 4 Sudeste 9 Sudeste 0 -- -- 45
2020-08-20 05:00:00 14.4 8 Sur 14 Sur 0 -- -- 45
2020-08-20 04:00:00 14.2 6 Sur 15 Sur 0 -- -- 44
2020-08-20 03:00:00 15 12 Sur 19 Oeste 0 -- -- 41
2020-08-20 02:00:00 18.8 12 Sudoeste 22 Sudoeste 0 -- -- 33
2020-08-20 01:00:00 20.5 18 Sudoeste 26 Sur 0 -- -- 28
2020-08-20 00:00:00 21.3 17 Sudoeste 22 Sur 0 -- -- 25
2020-08-19 23:00:00 22.8 17 Sudoeste 24 Sudoeste 0 -- -- 23
2020-08-19 22:00:00 24.2 16 Sudoeste 28 Sudoeste 0 -- -- 24
2020-08-19 21:00:00 26.6 18 Sudoeste 40 Sudoeste 0 -- -- 20
2020-08-19 20:00:00 29.2 30 Sudoeste 43 Sudoeste 0 -- -- 17
2020-08-19 19:00:00 30.5 26 Sudoeste 43 Sudoeste 0 -- -- 15
2020-08-19 18:00:00 31.2 32 Sudoeste 54 Sudoeste 0 -- -- 13
2020-08-19 17:00:00 31.1 39 Sudoeste 59 Oeste 0 -- -- 12
2020-08-19 16:00:00 31.4 40 Sudoeste 61 Sudoeste 0 -- -- 13
2020-08-19 15:00:00 31.7 35 Sudoeste 53 Sudoeste 0 -- -- 10
2020-08-19 14:00:00 30.6 26 Sudoeste 53 Sudoeste 0 -- -- 14
2020-08-19 13:00:00 28.9 30 Sudoeste 45 Sudoeste 0 -- -- 16
2020-08-19 12:00:00 27.4 23 Sudoeste 37 Sudoeste 0 -- -- 21
2020-08-19 11:00:00 24.8 12 Oeste 17 Oeste 0 -- -- 39
2020-08-19 10:00:00 23.1 2 Nordeste 5 Norte 0 -- -- 50
2020-08-19 09:00:00 19.3 3 Sudeste 8 Sur 0 -- -- 61
2020-08-19 08:00:00 14.7 7 Sur 10 Sur 0 -- -- 77
2020-08-19 07:00:00 13.7 3 Sur 13 Sur 0 -- -- 80
2020-08-19 06:00:00 14.1 9 Sur 12 Sur 0 -- -- 78
2020-08-19 05:00:00 15.8 8 Sudoeste 15 Sudoeste 0 -- -- 73
2020-08-19 04:00:00 16.6 12 Sudoeste 18 Sudoeste 0 -- -- 66
2020-08-19 03:00:00 17.7 12 Sudoeste 15 Oeste 0 -- -- 61
2020-08-19 02:00:00 18.3 9 Sudoeste 13 Sudoeste 0 -- -- 60
2020-08-19 01:00:00 18.9 6 Sudoeste 8 Sur 0 -- -- 62
2020-08-19 00:00:00 19.5 3 Sudoeste 7 Sur 0 -- -- 61